Terminal Aerodrome Forecast
Issued by NWS

Home | Current Version | Previous Version | Text Only | Print | Product List | Glossary On
Versions: 1 2 3 4 5 6 7 8 9 10 11 12 13 14 15 16 17 18 19 20 21 22 23 24 25 26 27 28 29 30
000
FTUS44 KFWD 200308 AAA
TAFDAL
TAF AMD
KDAL 200308Z 2003/2024 13015KT P6SM SCT020 BKN250
     FM200400 16010KT P6SM VCSH BKN025
     FM200600 17010KT 4SM TSRA BR BKN010 OVC015CB
     FM201000 20007KT 4SM SHRA BR OVC015
     FM201500 16009KT P6SM BKN020
     FM201800 18010KT P6SM SCT025 BKN060
     FM202300 15010KT P6SM SCT250=

USA.gov is the U.S. government's official web portal to all federal, state and local government web resources and services.